• Join FlightAware (Why Join?)
  • Login
  • US Flag 
07:07PM EDT


 

Airport Tracker/Info


-or-


 

Live Flight TrackerFlight Track Log ✈ N919QS ✈ 17-Jun-2013 ✈ KIAD - KBFI

Flight Track Log - Related Links

Times and Time Zones

All times are in EDT time to prevent confusion due to time zone crossing. See the N919QS flight status page for this flight to view local times or setup timezone preferences in your user account.

Time Position Orientation Groundspeed Altitude Reporting Facility
EDT Latitude Longitude Course Direction KTS MPH feet Rate Location/Type
05:15PM 39.0333 -77.4500 339° North 241 277 4,900  Level Potomac TRACON
05:16PM 39.1000 -77.4833 339° North 278 320 8,800 2,820 Climbing Potomac TRACON
05:17PM 39.1667 -77.5333 330° Northwest 282 325 10,600 1,560 Climbing Potomac TRACON
05:19PM 39.2964 -77.6272 331° Northwest 284 327 13,300 1,680 Climbing Washington Center
05:20PM 39.3600 -77.6881 324° Northwest 279 321 15,600 2,040 Climbing Washington Center
05:21PM 39.4275 -77.7517 324° Northwest 291 335 17,400 1,320 Climbing Washington Center
05:22PM 39.5033 -77.8292 322° Northwest 320 368 18,300 1,080 Climbing Washington Center
05:23PM 39.5597 -77.9333 305° West 347 399 19,700 1,380 Climbing Washington Center
05:24PM 39.5967 -78.0583 291° West 357 411 21,200 1,500 Climbing Washington Center
05:25PM 39.6531 -78.2372 292° West 376 433 23,500 1,320 Climbing Cleveland Center
05:26PM 39.6889 -78.3603 291° West 371 427 24,600 1,080 Climbing Cleveland Center
05:27PM 39.7247 -78.4858 290° West 371 427 25,700 900 Climbing Cleveland Center
05:28PM 39.7644 -78.6142 292° West 371 427 26,500 720 Climbing Cleveland Center
05:29PM 39.8189 -78.7533 297° West 384 442 27,200 840 Climbing Cleveland Center
05:30PM 39.8772 -78.8761 302° West 389 448 28,200 1,200 Climbing Cleveland Center
05:31PM 39.9417 -79.0017 304° West 404 465 29,600 1,440 Climbing Cleveland Center
05:32PM 39.9994 -79.1222 302° West 404 465 31,100 1,200 Climbing Cleveland Center
05:33PM 40.0553 -79.2458 301° West 404 465 32,100 900 Climbing Cleveland Center
05:34PM 40.1150 -79.3722 302° West 404 465 33,000 900 Climbing Cleveland Center
05:35PM 40.1725 -79.4961 301° West 404 465 34,000 960 Climbing Cleveland Center
05:36PM 40.2319 -79.6231 302° West 404 465 35,000 960 Climbing Cleveland Center
05:37PM 40.2914 -79.7528 301° West 404 465 36,000 960 Climbing Cleveland Center
05:38PM 40.3506 -79.8831 301° West 404 465 37,000 960 Climbing Cleveland Center
05:39PM 40.4014 -79.9997 300° West 409 471 38,000 960 Climbing Cleveland Center
05:40PM 40.4603 -80.1275 301° West 414 476 39,000 960 Climbing Cleveland Center
05:41PM 40.5192 -80.2553 301° West 414 476 40,000 900 Climbing Cleveland Center
05:42PM 40.5778 -80.3753 303° West 409 471 40,900 960 Climbing Cleveland Center
05:43PM 40.6361 -80.5147 299° West 391 450 42,000 900 Climbing Cleveland Center
05:44PM 40.6842 -80.6186 301° West 386 444 42,800 480 Climbing Cleveland Center
05:45PM 40.7342 -80.7392 299° West 386 444 43,000  Climbing Cleveland Center
05:46PM 40.7839 -80.8711 296° West 381 438 42,900  Descending Cleveland Center
05:47PM 40.8336 -81.0003 297° West 392 451 43,000  Climbing Cleveland Center
05:48PM 40.8808 -81.1378 294° West 406 467 43,000  Level Cleveland Center
05:49PM 40.9364 -81.2839 297° West 406 467 43,000  Level Cleveland Center
05:50PM 40.9897 -81.4222 297° West 406 467 43,000  Level Cleveland Center
05:51PM 41.0386 -81.5603 295° West 406 467 43,000  Level Cleveland Center
05:52PM 41.0894 -81.6989 296° West 411 473 43,000  Level Cleveland Center
05:53PM 41.1422 -81.8267 299° West 421 484 43,000  Level Cleveland Center
05:54PM 41.1950 -81.9656 297° West 427 491 43,000  Level Cleveland Center
05:55PM 41.2494 -82.1075 297° West 427 491 43,000  Level Cleveland Center
05:56PM 41.2972 -82.2608 293° West 433 498 43,000  Level Cleveland Center
05:57PM 41.3514 -82.4033 297° West 438 504 43,000  Level Cleveland Center
05:58PM 41.4031 -82.5514 295° West 438 504 43,000  Level Cleveland Center
05:59PM 41.4628 -82.7083 297° West 443 510 43,000  Level Cleveland Center
06:00PM 41.5142 -82.8569 295° West 443 510 43,000  Level Cleveland Center
06:01PM 41.5675 -83.0033 296° West 443 510 43,000  Level Cleveland Center
06:02PM 41.6186 -83.1497 295° West 438 504 43,000  Level Cleveland Center
06:03PM 41.6694 -83.2961 295° West 438 504 43,000  Level Cleveland Center
06:04PM 41.7200 -83.4431 295° West 438 504 43,000  Level Cleveland Center
06:05PM 41.7725 -83.5931 295° West 443 510 43,000  Level Cleveland Center
06:06PM 41.8247 -83.7375 296° West 443 510 43,000  Level Cleveland Center
06:07PM 41.8769 -83.8881 295° West 443 510 43,000  Level Cleveland Center
06:08PM 41.9267 -84.0358 294° West 443 510 43,000  Level Cleveland Center
06:09PM 41.9764 -84.1864 294° West 443 510 43,000  Level Cleveland Center
06:10PM 42.0283 -84.3181 298° West 443 510 43,000  Level Cleveland Center
06:12PM 42.0961 -84.5369 293° West 441 507 43,000  Level Chicago Center
06:13PM 42.1492 -84.6836 296° West 440 506 43,000  Level Chicago Center
06:14PM 42.1997 -84.8339 294° West 440 506 43,000  Level Chicago Center
06:15PM 42.2497 -84.9850 294° West 441 507 43,000  Level Chicago Center
06:16PM 42.3000 -85.1369 294° West 443 510 43,000  Level Chicago Center
06:17PM 42.3500 -85.2908 294° West 447 514 43,000  Level Chicago Center
06:18PM 42.4100 -85.4750 294° West 446 513 43,000  Level Chicago Center
06:19PM 42.4589 -85.6272 294° West 443 510 43,000  Level Chicago Center
06:20PM 42.5089 -85.7817 294° West 447 514 43,000  Level Chicago Center
06:21PM 42.5586 -85.9375 293° West 448 516 43,000  Level Chicago Center
06:22PM 42.6072 -86.0956 293° West 452 520 43,000  Level Chicago Center
06:23PM 42.6578 -86.2506 294° West 447 514 43,000  Level Chicago Center
06:24PM 42.7061 -86.4042 293° West 439 505 43,000  Level Chicago Center
06:25PM 42.7631 -86.5881 293° West 438 504 43,000  Level Chicago Center
06:26PM 42.8117 -86.7417 293° West 440 506 43,000  Level Chicago Center
06:27PM 42.8592 -86.8936 293° West 435 501 43,000  Level Chicago Center
06:28PM 42.9056 -87.0467 293° West 436 502 43,000  Level Chicago Center
06:29PM 42.9531 -87.2011 293° West 439 505 43,000  Level Chicago Center
06:30PM 43.0003 -87.3553 293° West 441 507 43,000  Level Chicago Center
06:31PM 43.0558 -87.5417 292° West 445 512 43,000  Level Chicago Center
06:33PM 43.1031 -87.6969 293° West 443 510 43,000  Level Chicago Center
06:34PM 43.1503 -87.8522 293° West 441 507 43,000  Level Chicago Center
06:35PM 43.1967 -88.0094 292° West 443 510 43,000  Level Chicago Center
06:36PM 43.2425 -88.1681 292° West 445 512 43,000  Level Chicago Center
06:37PM 43.2897 -88.3281 292° West 450 518 43,000  Level Chicago Center
06:38PM 43.3411 -88.5050 292° West 451 519 43,000  Level Chicago Center
06:39PM 43.3836 -88.6583 291° West 457 526 43,000  Level Chicago Center
06:40PM 43.4392 -88.8461 292° West 452 520 43,000  Level Chicago Center
06:41PM 43.4850 -89.0081 291° West 452 520 43,000  Level Chicago Center
06:42PM 43.5311 -89.1686 292° West 451 519 43,000  Level Chicago Center
06:43PM 43.5764 -89.3311 291° West 452 520 43,000  Level Chicago Center
06:44PM 43.6217 -89.4925 291° West 452 520 43,000  Level Chicago Center
06:45PM 43.6647 -89.6547 290° West 448 516 43,000  Level Chicago Center
06:46PM 43.7186 -89.8417 292° West 450 518 43,000  Level Chicago Center
06:47PM 43.7625 -90.0036 291° West 449 517 43,000  Level Chicago Center
06:48PM 43.8075 -90.1661 291° West 453 521 43,000  Level Chicago Center
06:49PM 43.8353 -90.2722 290° West 446 513 43,000  Level Minneapolis Center
06:50PM 43.8792 -90.4353 291° West 450 518 43,000  Level Minneapolis Center
06:50PM 43.8903 -90.4833 288° West 449 517 43,000  Level Chicago Center
06:51PM 43.9428 -90.6769 291° West 452 520 43,000  Level Chicago Center
06:52PM 43.9689 -90.7725 291° West 450 518 43,000  Level Minneapolis Center
06:53PM 44.0106 -90.9306 290° West 445 512 43,000  Level Minneapolis Center
06:54PM 44.0531 -91.0917 290° West 448 516 43,000  Level Minneapolis Center
06:55PM 44.1039 -91.2864 290° West 451 519 43,000  Level Minneapolis Center
06:56PM 44.1464 -91.4536 290° West 450 518 43,000  Level Minneapolis Center
06:57PM 44.1894 -91.6186 290° West 453 521 43,000  Level Minneapolis Center
06:58PM 44.2311 -91.7844 289° West 455 524 43,000  Level Minneapolis Center
06:59PM 44.2736 -91.9511 290° West 457 526 43,000  Level Minneapolis Center
07:00PM 44.3072 -92.0847 289° West 458 527 43,000  Level Minneapolis Center
07:01PM 44.3650 -92.3189 289° West 458 527 43,000  Level Minneapolis Center
07:02PM 44.4056 -92.4867 289° West 457 526 43,000  Level Minneapolis Center
07:03PM 44.4461 -92.6556 289° West 459 528 43,000  Level Minneapolis Center
07:04PM 44.4867 -92.8222 289° West 454 522 43,000  Level Minneapolis Center
07:05PM 44.5283 -92.9917 289° West 458 527 43,000  Level Minneapolis Center
07:06PM 44.5686 -93.1631 288° West 459 528 43,000  Level Minneapolis Center
07:07PM 44.6097 -93.3367 288° West 460 529 43,000  Level Minneapolis Center
07:09PM 44.6506 -93.5108 288° West 462 532 43,000  Level Minneapolis Center
07:10PM 44.7072 -93.7494 289° West 459 528 43,000  Level Minneapolis Center
07:11PM 44.7469 -93.9208 288° West 461 531 43,000  Level Minneapolis Center
07:12PM 44.7872 -94.0919 288° West 461 531 43,000  Level Minneapolis Center
07:13PM 44.8253 -94.2628 287° West 461 531 43,000  Level Minneapolis Center
07:14PM 44.8642 -94.4350 288° West 461 531 43,000  Level Minneapolis Center
07:15PM 44.9011 -94.6058 287° West 458 527 43,000  Level Minneapolis Center
07:16PM 44.9494 -94.8150 288° West 456 525 43,000  Level Minneapolis Center
07:17PM 44.9858 -94.9867 287° West 458 527 43,000  Level Minneapolis Center
07:18PM 45.0236 -95.1567 288° West 457 526 43,000  Level Minneapolis Center
07:19PM 45.0606 -95.3261 287° West 455 524 43,000  Level Minneapolis Center
07:20PM 45.0958 -95.4958 286° West 453 521 43,000  Level Minneapolis Center
07:21PM 45.1331 -95.6692 287° West 460 529 43,000  Level Minneapolis Center
07:22PM 45.1772 -95.8744 287° West 458 527 43,000  Level Minneapolis Center
07:23PM 45.2117 -96.0469 286° West 458 527 43,000  Level Minneapolis Center
07:24PM 45.2483 -96.2197 287° West 460 529 43,000  Level Minneapolis Center
07:25PM 45.2844 -96.3931 287° West 461 531 43,000  Level Minneapolis Center
07:26PM 45.3211 -96.5661 287° West 460 529 43,000  Level Minneapolis Center
07:27PM 45.3692 -96.8106 286° West 462 532 43,000  Level Minneapolis Center
07:28PM 45.4039 -96.9847 286° West 463 533 43,000  Level Minneapolis Center
07:29PM 45.4311 -97.1250 286° West 461 531 43,000  Level Minneapolis Center
07:30PM 45.4719 -97.3367 285° West 463 533 43,000  Level Minneapolis Center
07:32PM 45.5069 -97.5147 286° West 467 537 43,000  Level Minneapolis Center
07:33PM 45.5419 -97.6906 286° West 466 536 43,000  Level Minneapolis Center
07:34PM 45.5811 -97.9039 285° West 465 535 43,000  Level Minneapolis Center
07:35PM 45.6094 -98.0447 286° West 465 535 43,000  Level Minneapolis Center
07:36PM 45.6519 -98.2683 285° West 467 537 43,000  Level Minneapolis Center
07:37PM 45.6850 -98.4467 285° West 467 537 43,000  Level Minneapolis Center
07:38PM 45.7181 -98.6264 285° West 468 539 43,000  Level Minneapolis Center
07:39PM 45.7550 -98.8414 284° West 467 537 43,000  Level Minneapolis Center
07:40PM 45.7883 -99.0228 285° West 470 541 43,000  Level Minneapolis Center
07:41PM 45.8203 -99.2058 284° West 473 544 43,000  Level Minneapolis Center
07:42PM 45.8531 -99.3894 284° West 476 548 43,000  Level Minneapolis Center
07:43PM 45.8842 -99.5733 284° West 477 549 43,000  Level Minneapolis Center
07:44PM 45.9153 -99.7553 284° West 476 548 43,000  Level Minneapolis Center
07:45PM 45.9528 -99.9750 284° West 474 545 43,000  Level Minneapolis Center
07:46PM 45.9825 -100.1564 283° West 472 543 43,000  Level Minneapolis Center
07:47PM 46.0147 -100.3425 284° West 479 551 43,000  Level Minneapolis Center
07:48PM 46.0433 -100.5256 283° West 475 547 43,000  Level Minneapolis Center
07:49PM 46.0736 -100.7089 283° West 473 544 43,000  Level Minneapolis Center
07:50PM 46.1103 -100.9331 283° West 479 551 43,000  Level Minneapolis Center
07:51PM 46.1383 -101.1197 282° West 478 550 43,000  Level Minneapolis Center
07:52PM 46.1683 -101.3081 283° West 482 555 43,000  Level Minneapolis Center
07:53PM 46.1972 -101.4944 283° West 480 552 43,000  Level Minneapolis Center
07:54PM 46.2269 -101.6797 283° West 477 549 43,000  Level Minneapolis Center
07:56PM 46.2608 -101.9028 282° West 476 548 43,000  Level Minneapolis Center
07:57PM 46.2933 -102.1103 283° West 473 544 43,000  Level Minneapolis Center
07:58PM 46.3214 -102.2936 283° West 471 542 43,000  Level Minneapolis Center
07:59PM 46.3481 -102.4803 282° West 472 543 43,000  Level Minneapolis Center
08:00PM 46.3744 -102.6661 282° West 472 543 43,000  Level Minneapolis Center
08:01PM 46.3994 -102.8528 281° West 473 544 43,000 -60 Level Minneapolis Center
08:02PM 46.4306 -103.0758 282° West 472 543 42,900  Descending Minneapolis Center
08:03PM 46.4547 -103.2622 281° West 471 542 43,000  Climbing Salt Lake Center
08:04PM 46.4803 -103.4489 281° West 470 541 43,000  Level Salt Lake Center
08:05PM 46.5053 -103.6367 281° West 471 542 43,000 -60 Level Salt Lake Center
08:06PM 46.5303 -103.8233 281° West 472 543 42,900  Descending Salt Lake Center
08:07PM 46.5550 -104.0128 281° West 474 545 43,000  Climbing Salt Lake Center
08:08PM 46.5786 -104.2011 280° West 475 547 42,900  Descending Salt Lake Center
08:09PM 46.6033 -104.3906 281° West 476 548 43,000  Climbing Salt Lake Center
08:10PM 46.6294 -104.6175 280° West 475 547 43,000  Level Salt Lake Center
08:11PM 46.6544 -104.8083 281° West 476 548 43,000  Level Salt Lake Center
08:12PM 46.6767 -104.9978 280° West 477 549 43,000  Level Salt Lake Center
08:13PM 46.6989 -105.1869 280° West 475 547 43,000  Level Salt Lake Center
08:14PM 46.7222 -105.3783 280° West 478 550 43,000  Level Salt Lake Center
08:15PM 46.7494 -105.5939 281° West 479 551 43,000  Level Salt Lake Center
08:16PM 46.7700 -105.7772 279° West 479 551 43,000  Level Salt Lake Center
08:17PM 46.7939 -105.9872 280° West 475 547 43,000  Level Salt Lake Center
08:18PM 46.8161 -106.1731 280° West 480 552 43,000  Level Salt Lake Center
08:19PM 46.8358 -106.3575 279° West 480 552 43,000  Level Salt Lake Center
08:20PM 46.8600 -106.5728 279° West 482 555 43,000  Level Salt Lake Center
08:21PM 46.8789 -106.7567 279° West 480 552 43,000  Level Salt Lake Center
08:22PM 46.9006 -106.9736 278° West 483 556 43,000  Level Salt Lake Center
08:23PM 46.9197 -107.1578 279° West 482 555 43,000  Level Salt Lake Center
08:24PM 46.9417 -107.3706 279° West 477 549 43,000  Level Salt Lake Center
08:25PM 46.9583 -107.5544 278° West 476 548 43,000  Level Salt Lake Center
08:26PM 46.9772 -107.7375 279° West 477 549 43,000  Level Salt Lake Center
08:27PM 46.9969 -107.9511 278° West 476 548 43,000  Level Salt Lake Center
08:28PM 47.0142 -108.1339 278° West 474 545 43,000  Level Salt Lake Center
08:29PM 47.0336 -108.3472 278° West 474 545 43,000  Level Salt Lake Center
08:30PM 47.0506 -108.5303 278° West 475 547 43,000  Level Salt Lake Center
08:32PM 47.0692 -108.7442 277° West 475 547 43,000  Level Salt Lake Center
08:33PM 47.0847 -108.9294 277° West 477 549 43,000  Level Salt Lake Center
08:34PM 47.1006 -109.1172 277° West 475 547 43,000  Level Salt Lake Center
08:35PM 47.1169 -109.3092 277° West 476 548 43,000  Level Salt Lake Center
08:36PM 47.1319 -109.5014 277° West 475 547 43,000  Level Salt Lake Center
08:37PM 47.1475 -109.6936 277° West 474 545 43,000  Level Salt Lake Center
08:38PM 47.1658 -109.9256 277° West 476 548 43,000  Level Salt Lake Center
08:39PM 47.1800 -110.1183 276° West 476 548 43,000  Level Salt Lake Center
08:40PM 47.1947 -110.3125 276° West 477 549 43,000  Level Salt Lake Center
08:41PM 47.2078 -110.5053 276° West 475 547 43,000  Level Salt Lake Center
08:42PM 47.2217 -110.7011 276° West 480 552 43,000  Level Salt Lake Center
08:43PM 47.2347 -110.8967 276° West 480 552 43,000  Level Salt Lake Center
08:44PM 47.2469 -111.0911 275° West 477 549 43,000  Level Salt Lake Center
08:45PM 47.2594 -111.2894 275° West 481 554 43,000 -60 Level Salt Lake Center
08:46PM 47.2717 -111.4881 275° West 483 556 42,900  Descending Salt Lake Center
08:47PM 47.2869 -111.7228 276° West 479 551 43,000  Climbing Salt Lake Center
08:48PM 47.2992 -111.9203 275° West 481 554 43,000  Level Salt Lake Center
08:49PM 47.3106 -112.1183 275° West 483 556 43,000  Level Salt Lake Center
08:50PM 47.3206 -112.3153 274° West 483 556 43,000  Level Salt Lake Center
08:51PM 47.3311 -112.5103 275° West 480 552 43,000  Level Salt Lake Center
08:52PM 47.3414 -112.7058 275° West 479 551 43,000  Level Salt Lake Center
08:53PM 47.3519 -112.9031 275° West 481 554 43,000  Level Salt Lake Center
08:54PM 47.3639 -113.1133 275° West 484 557 43,000  Level Salt Lake Center
08:55PM 47.3725 -113.3133 274° West 489 563 43,000  Level Salt Lake Center
08:56PM 47.3817 -113.5119 274° West 487 560 43,000  Level Salt Lake Center
08:57PM 47.3897 -113.7097 274° West 484 557 43,000  Level Salt Lake Center
08:58PM 47.3989 -113.9081 274° West 483 556 43,000  Level Salt Lake Center
08:59PM 47.4083 -114.1433 273° West 478 550 43,000  Level Salt Lake Center
09:00PM 47.4150 -114.3411 273° West 479 551 43,000  Level Salt Lake Center
09:01PM 47.4161 -114.3819 272° West 481 554 43,000  Level Seattle Center
09:02PM 47.4233 -114.5792 273° West 479 551 43,000  Level Seattle Center
09:02PM 47.4303 -114.7367 274° West 480 552 43,000  Level Salt Lake Center
09:03PM 47.4364 -114.9356 273° West 482 555 43,000  Level Salt Lake Center
09:04PM 47.4394 -115.0158 273° West 483 556 43,000  Level Seattle Center
09:05PM 47.4453 -115.2136 273° West 482 555 43,000  Level Seattle Center
09:06PM 47.4503 -115.4075 272° West 475 547 43,000  Level Seattle Center
09:07PM 47.4558 -115.5969 273° West 466 536 43,000  Level Seattle Center
09:08PM 47.4656 -115.7869 274° West 460 529 43,000  Level Seattle Center
09:09PM 47.4767 -115.9675 275° West 447 514 43,000  Level Seattle Center
09:10PM 47.4872 -116.1506 275° West 449 517 43,000  Level Seattle Center
09:11PM 47.4981 -116.3356 275° West 453 521 43,000  Level Seattle Center
09:12PM 47.5086 -116.5192 275° West 449 517 43,000  Level Seattle Center
09:13PM 47.5186 -116.7089 275° West 462 532 43,000  Level Seattle Center
09:14PM 47.5292 -116.9000 275° West 467 537 43,000  Level Seattle Center
09:15PM 47.5383 -117.0889 274° West 468 539 43,000  Level Seattle Center
09:16PM 47.5478 -117.2914 274° West 456 525 43,000  Level Seattle Center
09:17PM 47.5572 -117.4747 274° West 448 516 43,000  Level Seattle Center
09:18PM 47.5669 -117.6569 275° West 446 513 43,000  Level Seattle Center
09:19PM 47.5858 -117.8364 279° West 443 510 43,000  Level Seattle Center
09:20PM 47.6025 -118.0169 278° West 444 511 43,000  Level Seattle Center
09:21PM 47.6194 -118.2000 278° West 448 516 43,000  Level Seattle Center
09:22PM 47.6361 -118.3817 278° West 447 514 43,000  Level Seattle Center
09:23PM 47.6506 -118.5631 277° West 446 513 43,000  Level Seattle Center
09:24PM 47.6664 -118.7481 277° West 452 520 43,000 -1,020 Level Seattle Center
09:26PM 47.6846 -119.0280 279° West  Level FlightAware Approximate
09:26PM 47.7017 -119.1544 279° West 447 514 39,900  Level Seattle Center
09:27PM 47.7389 -119.3236 288° West 445 512 37,800 -2,040 Descending Seattle Center
09:28PM 47.8494 -119.4278 328° Northwest 478 550 35,800 -1,380 Descending Seattle Center
09:29PM 47.9322 -119.5731 310° West 476 548 35,000 -1,440 Descending Seattle Center
09:31PM 47.8967 -119.8346 270° West  Level Estimated
09:32PM 47.9181 -120.1186 277° West 466 536 30,000  Level Seattle Center
09:33PM 47.9069 -120.3114 265° West 468 539 27,100 -2,820 Descending Seattle Center
09:34PM 47.8978 -120.4992 266° West 461 531 24,300 -2,580 Descending Seattle Center
09:35PM 47.8892 -120.6769 266° West 440 506 21,900 -2,460 Descending Seattle Center
09:36PM 47.8778 -120.8578 265° West 434 499 19,300 -2,460 Descending Seattle Center
09:37PM 47.8647 -121.0317 264° West 428 493 16,900 -2,400 Descending Seattle Center
09:38PM 47.7192 -121.0779 277° West  Level Estimated
09:38PM 47.8556 -121.2064 266° West 340 391 14,500  Level Seattle Center
09:39PM 47.8625 -121.3272 275° West 296 341 12,800 -1,680 Descending Seattle Center
09:40PM 47.8700 -121.4461 275° West 293 337 11,100 -900 Descending Seattle Center
09:41PM 47.8778 -121.5872 275° West 296 341 11,000 -240 Descending Seattle Center
09:42PM 47.8828 -121.6867 274° West 296 341 10,700 -1,260 Descending Seattle Center
09:43PM 47.8364 -121.7714 231° Southwest 269 310 8,600 -2,220 Descending Seattle Center
09:44PM 47.7808 -121.8700 230° Southwest 270 311 6,300 -2,040 Descending Seattle Center
09:45PM 47.7692 -121.9803 261° West 271 312 4,500 -1,620 Descending Seattle Center
09:46PM 47.7558 -122.0864 259° West 263 303 3,100 -1,140 Descending Seattle Center
09:47PM 47.7442 -122.1858 260° West 248 285 2,200 -720 Descending Seattle Center
09:48PM 47.7425 -122.2158 265° West 223 257 2,200  Level Seattle Center
09:48PM 47.7331 -122.2761 257° West 224 258 2,200  Level Seattle Center
09:50PM 47.7211 -122.3858 261° West 215 247 2,200  Level Seattle Center
09:51PM 47.6769 -122.4233 210° Southwest 196 226 2,200  Level Seattle Center
09:51PM 47.6386 -122.3956 154° Southeast 195 224 2,200 -420 Level Seattle Center
09:52PM 47.6025 -122.3658 151° Southeast 131 151 1,500 -720 Descending Seattle Center
09:53PM 47.5708 -122.3372 149° Southeast 135 155 800 -600 Descending Seattle Center
09:54PM 47.5450 -122.3056 140° Southeast 144 166 300 -540 Descending Seattle Center
09:56PM 47.5300 -122.3020 247° West  Level Estimated
10:03PM 47.5300 -122.3020 247° West  Level Estimated